Viroqua, WI

8:55 AM CST on January 26, 2015 (GMT -0600)
Sparta-Fort McCoy | Change Station
CLOSE
Current Station
Airport
Location: Sparta,
Elevation: 837 ft
Nearby Weather Stations
Active Advisory: Winter Weather Advisory Active Notice: Public Information Statement

Elev 837 ft 43.96 °N, 90.74 °W | Updated 20 minutes ago

Overcast
Overcast
21 °F
Feels Like 14 °F
N
5
Wind Variable Wind from SSE

Today
High -- | Low -- °F
--% Chance of Precip.
Yesterday
High -- | Low -- °F
Precip. -- in
7:26 AM 5:06 PM
Waxing Crescent, 44% visible
Pressure 29.83 in
Visibility 5.0 miles
Clouds Scattered Clouds 200 ft
Mostly Cloudy 800 ft
Mostly Cloudy 2200 ft
Windchill 14 °F
Dew Point 17 °F
Humidity 85%
Rainfall 0.00 in
Snow Depth Not available.
UV 0 out of 12
Pollen .10 out of 12
Air Quality Not available.
Flu Activity Not available.
METAR KCMY 261435Z AUTO 16004KT 5SM -SN SCT002 BKN008 BKN022 M06/M08 A2983 RMK AO2 T10631084

More Conditions Fewer Conditions

Pressure 29.83 in
Visibility 5.0 miles
Clouds Scattered Clouds 200 ft
Mostly Cloudy 800 ft
Mostly Cloudy 2200 ft
Windchill 14 °F
Dew Point 17 °F
Humidity 85%
Rainfall 0.00 in
Snow Depth Not available.
UV 0 out of 12
Pollen .10 out of 12
Air Quality Not available.
Flu Activity Not available.
METAR KCMY 261435Z AUTO 16004KT 5SM -SN SCT002 BKN008 BKN022 M06/M08 A2983 RMK AO2 T10631084

More Conditions Fewer Conditions

10-Day Weather Forecast

Almanac

Astronomy

Jan. 26, 2015 Rise Set
Actual Time
Civil Twilight
Nautical Twilight
Astronomical Twilight
Moon
Length of Visible Light
Length of Day
Tomorrow will be .
, % of the Moon is Illuminated

Today's Extremes

State Highs State Lows

Community

WunderPhotos

Upload Photos

1,790,226 photos uploaded!

WunderBlogs® & News

Nearby

Air Quality

  Air Quality AQ Index Pollutant
Not available.

Snow Depth

Station Depth Elevation

Earthquake Activity

City Distance Mag. Time & Date
Minimum magnitude displayed is 2.5.

Coastal Water Temperatures

Place Temperature

Nearby Weather Stations